sensor_id;sensor_type;location;lat;lon;timestamp;pressure;altitude;pressure_sealevel;temperature;humidity
13015;BME280;6573;57.696;11.950;2022-12-18T00:01:24;101448.47;;;3.59;100.00
13015;BME280;6573;57.696;11.950;2022-12-18T00:03:55;101420.97;;;3.42;100.00
13015;BME280;6573;57.696;11.950;2022-12-18T00:06:25;101457.31;;;3.64;100.00
13015;BME280;6573;57.696;11.950;2022-12-18T00:08:56;101467.78;;;3.67;100.00
13015;BME280;6573;57.696;11.950;2022-12-18T00:11:27;101405.19;;;3.38;100.00
13015;BME280;6573;57.696;11.950;2022-12-18T00:13:59;101450.56;;;3.69;100.00
13015;BME280;6573;57.696;11.950;2022-12-18T00:16:29;101473.47;;;3.79;100.00
13015;BME280;6573;57.696;11.950;2022-12-18T00:19:00;101463.03;;;3.79;100.00
13015;BME280;6573;57.696;11.950;2022-12-18T00:21:30;101440.16;;;3.69;100.00
13015;BME280;6573;57.696;11.950;2022-12-18T00:24:00;101461.38;;;3.81;100.00
13015;BME280;6573;57.696;11.950;2022-12-18T00:26:32;101421.59;;;3.60;100.00
13015;BME280;6573;57.696;11.950;2022-12-18T00:29:06;101385.28;;;3.38;100.00
13015;BME280;6573;57.696;11.950;2022-12-18T00:31:59;101431.38;;;3.67;100.00
13015;BME280;6573;57.696;11.950;2022-12-18T00:34:29;101420.97;;;3.67;100.00
13015;BME280;6573;57.696;11.950;2022-12-18T00:37:12;101418.78;;;3.54;100.00
13015;BME280;6573;57.696;11.950;2022-12-18T00:39:48;101384.66;;;3.20;100.00
13015;BME280;6573;57.696;11.950;2022-12-18T00:42:22;101363.06;;;2.99;100.00
13015;BME280;6573;57.696;11.950;2022-12-18T00:45:11;101374.63;;;3.07;100.00
13015;BME280;6573;57.696;11.950;2022-12-18T00:47:40;101423.22;;;3.33;100.00
13015;BME280;6573;57.696;11.950;2022-12-18T00:50:10;101340.06;;;2.86;100.00
13015;BME280;6573;57.696;11.950;2022-12-18T00:52:39;101394.00;;;3.15;100.00
13015;BME280;6573;57.696;11.950;2022-12-18T00:55:09;101363.38;;;3.08;100.00
13015;BME280;6573;57.696;11.950;2022-12-18T00:57:38;101387.41;;;3.24;100.00
13015;BME280;6573;57.696;11.950;2022-12-18T01:00:11;101351.13;;;3.04;100.00
13015;BME280;6573;57.696;11.950;2022-12-18T01:02:41;101312.44;;;2.88;100.00
13015;BME280;6573;57.696;11.950;2022-12-18T01:05:17;101392.13;;;3.36;100.00
13015;BME280;6573;57.696;11.950;2022-12-18T01:07:46;101358.53;;;3.17;100.00
13015;BME280;6573;57.696;11.950;2022-12-18T01:10:16;101397.34;;;3.36;100.00
13015;BME280;6573;57.696;11.950;2022-12-18T01:12:45;101372.66;;;3.25;100.00
13015;BME280;6573;57.696;11.950;2022-12-18T01:15:18;101383.28;;;3.31;100.00
13015;BME280;6573;57.696;11.950;2022-12-18T01:17:47;101358.53;;;3.17;100.00
13015;BME280;6573;57.696;11.950;2022-12-18T01:20:15;101323.19;;;2.98;100.00
13015;BME280;6573;57.696;11.950;2022-12-18T01:22:45;101326.38;;;2.90;100.00
13015;BME280;6573;57.696;11.950;2022-12-18T01:25:13;101360.19;;;3.15;100.00
13015;BME280;6573;57.696;11.950;2022-12-18T01:27:45;101379.31;;;3.17;100.00
13015;BME280;6573;57.696;11.950;2022-12-18T01:30:14;101343.47;;;3.08;100.00
13015;BME280;6573;57.696;11.950;2022-12-18T01:32:45;101328.09;;;2.91;100.00
13015;BME280;6573;57.696;11.950;2022-12-18T01:35:14;101354.72;;;3.07;100.00
13015;BME280;6573;57.696;11.950;2022-12-18T01:37:43;101346.03;;;3.07;100.00
13015;BME280;6573;57.696;11.950;2022-12-18T01:40:14;101336.84;;;2.93;100.00
13015;BME280;6573;57.696;11.950;2022-12-18T01:42:43;101388.06;;;3.19;100.00
13015;BME280;6573;57.696;11.950;2022-12-18T01:45:26;101365.16;;;3.09;100.00
13015;BME280;6573;57.696;11.950;2022-12-18T01:48:00;101336.25;;;3.00;100.00
13015;BME280;6573;57.696;11.950;2022-12-18T01:50:32;101363.94;;;3.23;100.00
13015;BME280;6573;57.696;11.950;2022-12-18T01:53:07;101358.72;;;3.23;100.00
13015;BME280;6573;57.696;11.950;2022-12-18T01:55:41;101295.06;;;2.87;100.00
13015;BME280;6573;57.696;11.950;2022-12-18T01:58:13;101230.31;;;2.68;100.00
13015;BME280;6573;57.696;11.950;2022-12-18T02:00:45;101296.03;;;3.14;100.00
13015;BME280;6573;57.696;11.950;2022-12-18T02:03:16;101251.63;;;2.83;100.00
13015;BME280;6573;57.696;11.950;2022-12-18T02:05:47;101304.75;;;3.16;100.00
13015;BME280;6573;57.696;11.950;2022-12-18T02:08:24;101258.13;;;2.95;100.00
13015;BME280;6573;57.696;11.950;2022-12-18T02:11:03;101264.09;;;2.93;100.00
13015;BME280;6573;57.696;11.950;2022-12-18T02:13:41;101306.81;;;3.24;100.00
13015;BME280;6573;57.696;11.950;2022-12-18T02:16:17;101283.06;;;3.15;100.00
13015;BME280;6573;57.696;11.950;2022-12-18T02:19:10;101280.66;;;3.20;100.00
13015;BME280;6573;57.696;11.950;2022-12-18T02:21:52;101296.03;;;3.39;100.00
13015;BME280;6573;57.696;11.950;2022-12-18T02:24:29;101254.84;;;3.26;100.00
13015;BME280;6573;57.696;11.950;2022-12-18T02:27:05;101200.59;;;3.10;100.00
13015;BME280;6573;57.696;11.950;2022-12-18T02:29:38;101249.53;;;3.48;100.00
13015;BME280;6573;57.696;11.950;2022-12-18T02:32:12;101259.28;;;3.55;100.00
13015;BME280;6573;57.696;11.950;2022-12-18T02:34:44;101300.88;;;3.80;100.00
13015;BME280;6573;57.696;11.950;2022-12-18T02:37:16;101254.28;;;3.61;100.00
13015;BME280;6573;57.696;11.950;2022-12-18T02:39:48;101219.16;;;3.47;100.00
13015;BME280;6573;57.696;11.950;2022-12-18T02:42:19;101283.88;;;3.91;100.00
13015;BME280;6573;57.696;11.950;2022-12-18T02:44:50;101245.75;;;3.65;100.00
13015;BME280;6573;57.696;11.950;2022-12-18T02:47:21;101288.34;;;3.96;100.00
13015;BME280;6573;57.696;11.950;2022-12-18T02:49:59;101282.94;;;3.89;100.00
13015;BME280;6573;57.696;11.950;2022-12-18T02:52:35;101284.44;;;3.81;100.00
13015;BME280;6573;57.696;11.950;2022-12-18T02:55:15;101229.34;;;3.68;100.00
13015;BME280;6573;57.696;11.950;2022-12-18T02:57:53;101292.56;;;3.92;100.00
13015;BME280;6573;57.696;11.950;2022-12-18T03:00:28;101275.97;;;3.88;100.00
13015;BME280;6573;57.696;11.950;2022-12-18T03:03:06;101294.94;;;3.84;100.00
13015;BME280;6573;57.696;11.950;2022-12-18T03:05:39;101266.22;;;3.81;100.00
13015;BME280;6573;57.696;11.950;2022-12-18T03:08:14;101269.84;;;3.86;100.00
13015;BME280;6573;57.696;11.950;2022-12-18T03:10:48;101217.88;;;3.61;100.00
13015;BME280;6573;57.696;11.950;2022-12-18T03:13:23;101288.34;;;3.96;100.00
13015;BME280;6573;57.696;11.950;2022-12-18T03:15:55;101290.19;;;4.00;100.00
13015;BME280;6573;57.696;11.950;2022-12-18T03:18:30;101284.91;;;3.97;100.00
13015;BME280;6573;57.696;11.950;2022-12-18T03:21:05;101258.69;;;3.90;100.00
13015;BME280;6573;57.696;11.950;2022-12-18T03:23:38;101286.88;;;4.04;100.00
13015;BME280;6573;57.696;11.950;2022-12-18T03:26:13;101240.84;;;3.74;100.00
13015;BME280;6573;57.696;11.950;2022-12-18T03:28:51;101199.44;;;3.54;100.00
13015;BME280;6573;57.696;11.950;2022-12-18T03:31:23;101281.75;;;4.07;100.00
13015;BME280;6573;57.696;11.950;2022-12-18T03:33:53;101227.19;;;3.81;100.00
13015;BME280;6573;57.696;11.950;2022-12-18T03:36:22;101281.84;;;4.10;100.00
13015;BME280;6573;57.696;11.950;2022-12-18T03:38:53;101278.31;;;4.08;100.00
13015;BME280;6573;57.696;11.950;2022-12-18T03:41:43;101270.31;;;4.02;100.00
13015;BME280;6573;57.696;11.950;2022-12-18T03:48:06;101299.13;;;4.08;100.00
13015;BME280;6573;57.696;11.950;2022-12-18T03:50:42;101205.69;;;3.60;100.00
13015;BME280;6573;57.696;11.950;2022-12-18T03:53:28;101250.06;;;3.91;100.00
13015;BME280;6573;57.696;11.950;2022-12-18T03:56:01;101223.09;;;3.61;100.00
13015;BME280;6573;57.696;11.950;2022-12-18T03:58:52;101228.38;;;3.64;100.00
13015;BME280;6573;57.696;11.950;2022-12-18T04:01:39;101251.44;;;3.80;100.00
13015;BME280;6573;57.696;11.950;2022-12-18T04:04:27;101257.91;;;3.93;100.00
13015;BME280;6573;57.696;11.950;2022-12-18T04:07:01;101235.81;;;3.80;100.00
13015;BME280;6573;57.696;11.950;2022-12-18T04:09:34;101225.25;;;3.74;100.00
13015;BME280;6573;57.696;11.950;2022-12-18T04:12:08;101295.97;;;4.18;100.00
13015;BME280;6573;57.696;11.950;2022-12-18T04:14:37;101255.25;;;3.91;100.00
13015;BME280;6573;57.696;11.950;2022-12-18T04:17:05;101197.75;;;3.56;100.00
13015;BME280;6573;57.696;11.950;2022-12-18T04:19:38;101283.03;;;3.92;100.00
13015;BME280;6573;57.696;11.950;2022-12-18T04:22:11;101219.63;;;3.62;100.00
13015;BME280;6573;57.696;11.950;2022-12-18T04:24:55;101262.59;;;3.76;100.00
13015;BME280;6573;57.696;11.950;2022-12-18T04:27:26;101240.53;;;3.65;100.00
13015;BME280;6573;57.696;11.950;2022-12-18T04:29:56;101228.38;;;3.64;100.00
13015;BME280;6573;57.696;11.950;2022-12-18T04:32:26;101296.13;;;3.94;100.00
13015;BME280;6573;57.696;11.950;2022-12-18T04:35:02;101319.69;;;3.99;100.00
13015;BME280;6573;57.696;11.950;2022-12-18T04:37:36;101282.94;;;3.89;100.00
13015;BME280;6573;57.696;11.950;2022-12-18T04:40:07;101318.28;;;4.10;100.00
13015;BME280;6573;57.696;11.950;2022-12-18T04:42:36;101291.03;;;3.99;100.00
13015;BME280;6573;57.696;11.950;2022-12-18T04:45:07;101306.00;;;4.06;100.00
13015;BME280;6573;57.696;11.950;2022-12-18T04:47:36;101294.91;;;4.11;100.00
13015;BME280;6573;57.696;11.950;2022-12-18T04:50:07;101297.44;;;4.10;100.00
13015;BME280;6573;57.696;11.950;2022-12-18T04:52:39;101260.38;;;3.88;100.00
13015;BME280;6573;57.696;11.950;2022-12-18T04:55:08;101327.13;;;4.15;100.00
13015;BME280;6573;57.696;11.950;2022-12-18T04:57:39;101325.38;;;4.14;100.00
13015;BME280;6573;57.696;11.950;2022-12-18T05:00:10;101272.72;;;3.96;100.00
13015;BME280;6573;57.696;11.950;2022-12-18T05:02:44;101337.63;;;4.18;100.00
13015;BME280;6573;57.696;11.950;2022-12-18T05:05:14;101237.91;;;3.64;100.00
13015;BME280;6573;57.696;11.950;2022-12-18T05:07:44;101297.06;;;3.98;100.00
13015;BME280;6573;57.696;11.950;2022-12-18T05:10:13;101281.28;;;3.91;100.00
13015;BME280;6573;57.696;11.950;2022-12-18T05:12:45;101248.44;;;3.68;100.00
13015;BME280;6573;57.696;11.950;2022-12-18T05:15:29;101281.09;;;3.85;100.00
13015;BME280;6573;57.696;11.950;2022-12-18T05:17:58;101316.66;;;4.13;100.00
13015;BME280;6573;57.696;11.950;2022-12-18T05:20:30;101330.84;;;4.23;100.00
13015;BME280;6573;57.696;11.950;2022-12-18T05:22:59;101317.06;;;4.27;100.00
13015;BME280;6573;57.696;11.950;2022-12-18T05:25:28;101281.84;;;4.10;100.00
13015;BME280;6573;57.696;11.950;2022-12-18T05:27:57;101299.44;;;4.17;100.00
13015;BME280;6573;57.696;11.950;2022-12-18T05:30:26;101297.66;;;4.16;100.00
13015;BME280;6573;57.696;11.950;2022-12-18T05:32:55;101318.84;;;4.28;100.00
13015;BME280;6573;57.696;11.950;2022-12-18T05:35:25;101230.72;;;3.83;100.00
13015;BME280;6573;57.696;11.950;2022-12-18T05:37:57;101331.22;;;4.35;100.00
13015;BME280;6573;57.696;11.950;2022-12-18T05:40:27;101334.84;;;4.40;100.00
13015;BME280;6573;57.696;11.950;2022-12-18T05:42:57;101302.75;;;4.13;100.00
13015;BME280;6573;57.696;11.950;2022-12-18T05:45:36;101339.88;;;4.34;100.00
13015;BME280;6573;57.696;11.950;2022-12-18T05:48:09;101298.97;;;4.02;100.00
13015;BME280;6573;57.696;11.950;2022-12-18T05:50:43;101348.56;;;4.34;100.00
13015;BME280;6573;57.696;11.950;2022-12-18T05:53:19;101316.63;;;4.12;100.00
13015;BME280;6573;57.696;11.950;2022-12-18T05:55:48;101317.50;;;4.12;100.00
13015;BME280;6573;57.696;11.950;2022-12-18T05:58:17;101300.91;;;4.09;100.00
13015;BME280;6573;57.696;11.950;2022-12-18T06:00:47;101271.91;;;3.97;100.00
13015;BME280;6573;57.696;11.950;2022-12-18T06:03:16;101347.72;;;4.35;100.00
13015;BME280;6573;57.696;11.950;2022-12-18T06:05:45;101357.34;;;4.38;100.00
13015;BME280;6573;57.696;11.950;2022-12-18T06:08:16;101268.16;;;3.88;100.00
13015;BME280;6573;57.696;11.950;2022-12-18T06:10:50;101365.06;;;4.35;100.00
13015;BME280;6573;57.696;11.950;2022-12-18T06:13:20;101332.41;;;4.18;100.00
13015;BME280;6573;57.696;11.950;2022-12-18T06:15:50;101301.69;;;4.06;100.00
13015;BME280;6573;57.696;11.950;2022-12-18T06:18:19;101354.72;;;4.36;100.00
13015;BME280;6573;57.696;11.950;2022-12-18T06:20:55;101376.41;;;4.37;100.00
13015;BME280;6573;57.696;11.950;2022-12-18T06:23:26;101285.78;;;3.97;100.00
13015;BME280;6573;57.696;11.950;2022-12-18T06:25:55;101352.81;;;4.31;100.00
13015;BME280;6573;57.696;11.950;2022-12-18T06:28:24;101370.41;;;4.39;100.00
13015;BME280;6573;57.696;11.950;2022-12-18T06:30:52;101364.41;;;4.42;100.00
13015;BME280;6573;57.696;11.950;2022-12-18T06:33:21;101373.97;;;4.41;100.00
13015;BME280;6573;57.696;11.950;2022-12-18T06:35:50;101274.19;;;3.87;100.00
13015;BME280;6573;57.696;11.950;2022-12-18T06:38:33;101310.22;;;4.02;100.00
13015;BME280;6573;57.696;11.950;2022-12-18T06:41:13;101321.84;;;4.12;100.00
13015;BME280;6573;57.696;11.950;2022-12-18T06:43:43;101344.94;;;4.29;100.00
13015;BME280;6573;57.696;11.950;2022-12-18T06:46:12;101361.00;;;4.43;100.00
13015;BME280;6573;57.696;11.950;2022-12-18T06:48:45;101287.53;;;3.97;100.00
13015;BME280;6573;57.696;11.950;2022-12-18T06:51:17;101281.28;;;3.91;100.00
13015;BME280;6573;57.696;11.950;2022-12-18T06:53:48;101291.50;;;3.85;100.00
13015;BME280;6573;57.696;11.950;2022-12-18T06:56:18;101289.91;;;3.90;100.00
13015;BME280;6573;57.696;11.950;2022-12-18T06:58:48;101314.66;;;4.05;100.00
13015;BME280;6573;57.696;11.950;2022-12-18T07:01:17;101360.31;;;4.22;100.00
13015;BME280;6573;57.696;11.950;2022-12-18T07:03:51;101340.88;;;4.11;100.00
13015;BME280;6573;57.696;11.950;2022-12-18T07:06:22;101377.69;;;4.21;100.00
13015;BME280;6573;57.696;11.950;2022-12-18T07:08:53;101364.78;;;4.26;100.00
13015;BME280;6573;57.696;11.950;2022-12-18T07:11:23;101365.94;;;4.34;100.00
13015;BME280;6573;57.696;11.950;2022-12-18T07:13:52;101353.25;;;4.18;100.00
13015;BME280;6573;57.696;11.950;2022-12-18T07:16:22;101364.69;;;4.23;100.00
13015;BME280;6573;57.696;11.950;2022-12-18T07:18:52;101378.75;;;4.28;100.00
13015;BME280;6573;57.696;11.950;2022-12-18T07:21:22;101376.13;;;4.28;100.00
13015;BME280;6573;57.696;11.950;2022-12-18T07:23:53;101382.28;;;4.30;100.00
13015;BME280;6573;57.696;11.950;2022-12-18T07:26:23;101404.50;;;4.47;100.00
13015;BME280;6573;57.696;11.950;2022-12-18T07:28:56;101351.41;;;4.14;100.00
13015;BME280;6573;57.696;11.950;2022-12-18T07:31:26;101416.81;;;4.51;100.00
13015;BME280;6573;57.696;11.950;2022-12-18T07:33:55;101413.47;;;4.55;100.00
13015;BME280;6573;57.696;11.950;2022-12-18T07:36:24;101421.38;;;4.58;100.00
13015;BME280;6573;57.696;11.950;2022-12-18T07:39:00;101398.66;;;4.26;100.00
13015;BME280;6573;57.696;11.950;2022-12-18T07:41:32;101384.09;;;4.32;100.00
13015;BME280;6573;57.696;11.950;2022-12-18T07:44:01;101348.03;;;4.18;100.00
13015;BME280;6573;57.696;11.950;2022-12-18T07:46:30;101425.94;;;4.65;100.00
13015;BME280;6573;57.696;11.950;2022-12-18T07:49:00;101425.00;;;4.63;100.00
13015;BME280;6573;57.696;11.950;2022-12-18T07:51:30;101418.94;;;4.64;100.00
13015;BME280;6573;57.696;11.950;2022-12-18T07:54:01;101367.78;;;4.38;100.00
13015;BME280;6573;57.696;11.950;2022-12-18T07:56:35;101388.81;;;4.44;100.00
13015;BME280;6573;57.696;11.950;2022-12-18T07:59:04;101429.56;;;4.70;100.00
13015;BME280;6573;57.696;11.950;2022-12-18T08:01:36;101399.78;;;4.62;100.00
13015;BME280;6573;57.696;11.950;2022-12-18T08:04:05;101373.25;;;4.47;100.00
13015;BME280;6573;57.696;11.950;2022-12-18T08:06:35;101422.66;;;4.72;100.00
13015;BME280;6573;57.696;11.950;2022-12-18T08:09:15;101448.72;;;4.72;100.00
13015;BME280;6573;57.696;11.950;2022-12-18T08:11:45;101438.03;;;4.63;100.00
13015;BME280;6573;57.696;11.950;2022-12-18T08:14:13;101431.03;;;4.62;100.00
13015;BME280;6573;57.696;11.950;2022-12-18T08:16:43;101432.63;;;4.57;100.00
13015;BME280;6573;57.696;11.950;2022-12-18T08:19:12;101427.25;;;4.51;100.00
13015;BME280;6573;57.696;11.950;2022-12-18T08:21:41;101462.69;;;4.74;100.00
13015;BME280;6573;57.696;11.950;2022-12-18T08:24:14;101480.00;;;4.72;100.00
13015;BME280;6573;57.696;11.950;2022-12-18T08:26:43;101442.13;;;4.55;100.00
13015;BME280;6573;57.696;11.950;2022-12-18T08:29:38;101439.34;;;4.49;100.00
13015;BME280;6573;57.696;11.950;2022-12-18T08:32:22;101473.03;;;4.71;100.00
13015;BME280;6573;57.696;11.950;2022-12-18T08:34:52;101469.19;;;4.60;100.00
13015;BME280;6573;57.696;11.950;2022-12-18T08:37:37;101490.53;;;4.75;100.00
13015;BME280;6573;57.696;11.950;2022-12-18T08:40:10;101470.97;;;4.61;100.00
13015;BME280;6573;57.696;11.950;2022-12-18T08:42:55;101470.09;;;4.61;100.00
13015;BME280;6573;57.696;11.950;2022-12-18T08:45:43;101501.78;;;4.74;100.00
13015;BME280;6573;57.696;11.950;2022-12-18T08:48:24;101506.16;;;4.75;100.00
13015;BME280;6573;57.696;11.950;2022-12-18T08:51:07;101492.59;;;4.85;100.00
13015;BME280;6573;57.696;11.950;2022-12-18T08:53:38;101510.19;;;4.92;100.00
13015;BME280;6573;57.696;11.950;2022-12-18T08:56:12;101463.78;;;4.54;100.00
13015;BME280;6573;57.696;11.950;2022-12-18T08:58:43;101517.06;;;4.90;100.00
13015;BME280;6573;57.696;11.950;2022-12-18T09:01:15;101489.63;;;4.75;100.00
13015;BME280;6573;57.696;11.950;2022-12-18T09:03:59;101451.63;;;4.53;100.00
13015;BME280;6573;57.696;11.950;2022-12-18T09:06:30;101504.31;;;4.71;100.00
13015;BME280;6573;57.696;11.950;2022-12-18T09:09:02;101528.31;;;4.89;100.00
13015;BME280;6573;57.696;11.950;2022-12-18T09:11:39;101461.75;;;4.44;100.00
13015;BME280;6573;57.696;11.950;2022-12-18T09:14:09;101502.63;;;4.73;100.00
13015;BME280;6573;57.696;11.950;2022-12-18T09:16:38;101504.50;;;4.77;100.00
13015;BME280;6573;57.696;11.950;2022-12-18T09:19:12;101530.94;;;4.89;100.00
13015;BME280;6573;57.696;11.950;2022-12-18T09:21:43;101461.81;;;4.47;100.00
13015;BME280;6573;57.696;11.950;2022-12-18T09:24:15;101522.69;;;4.76;100.00
13015;BME280;6573;57.696;11.950;2022-12-18T09:26:48;101553.38;;;4.84;100.00
13015;BME280;6573;57.696;11.950;2022-12-18T09:29:23;101532.72;;;4.90;100.00
13015;BME280;6573;57.696;11.950;2022-12-18T09:32:09;101458.28;;;4.45;100.00
13015;BME280;6573;57.696;11.950;2022-12-18T09:34:53;101546.28;;;4.80;100.00
13015;BME280;6573;57.696;11.950;2022-12-18T09:37:25;101551.78;;;4.89;100.00
13015;BME280;6573;57.696;11.950;2022-12-18T09:40:01;101539.41;;;4.82;100.00
13015;BME280;6573;57.696;11.950;2022-12-18T09:43:04;101554.22;;;4.83;100.00
13015;BME280;6573;57.696;11.950;2022-12-18T09:45:55;101466.97;;;4.44;100.00
13015;BME280;6573;57.696;11.950;2022-12-18T09:48:46;101552.41;;;4.81;100.00
13015;BME280;6573;57.696;11.950;2022-12-18T09:51:26;101534.09;;;4.79;100.00
13015;BME280;6573;57.696;11.950;2022-12-18T09:54:18;101493.56;;;4.62;100.00
13015;BME280;6573;57.696;11.950;2022-12-18T09:57:20;101503.28;;;4.66;100.00
13015;BME280;6573;57.696;11.950;2022-12-18T10:00:15;101548.09;;;4.81;100.00
13015;BME280;6573;57.696;11.950;2022-12-18T10:02:47;101547.28;;;4.84;100.00
13015;BME280;6573;57.696;11.950;2022-12-18T10:05:29;101524.84;;;4.62;100.00
13015;BME280;6573;57.696;11.950;2022-12-18T10:08:39;101466.25;;;4.23;100.00
13015;BME280;6573;57.696;11.950;2022-12-18T10:11:32;101494.56;;;4.39;100.00
13015;BME280;6573;57.696;11.950;2022-12-18T10:14:13;101527.41;;;4.61;100.00
13015;BME280;6573;57.696;11.950;2022-12-18T10:17:00;101555.53;;;4.71;100.00
13015;BME280;6573;57.696;11.950;2022-12-18T10:19:39;101554.44;;;4.64;100.00
13015;BME280;6573;57.696;11.950;2022-12-18T10:22:25;101570.41;;;4.73;100.00
13015;BME280;6573;57.696;11.950;2022-12-18T10:25:04;101529.47;;;4.44;100.00
13015;BME280;6573;57.696;11.950;2022-12-18T10:28:11;101516.75;;;4.28;100.00
13015;BME280;6573;57.696;11.950;2022-12-18T10:30:54;101554.16;;;4.55;100.00
13015;BME280;6573;57.696;11.950;2022-12-18T10:33:55;101541.66;;;4.45;100.00
13015;BME280;6573;57.696;11.950;2022-12-18T10:36:47;101510.09;;;4.36;100.00
13015;BME280;6573;57.696;11.950;2022-12-18T10:39:22;101603.75;;;4.83;100.00
13015;BME280;6573;57.696;11.950;2022-12-18T10:42:09;101527.41;;;4.34;100.00
13015;BME280;6573;57.696;11.950;2022-12-18T10:45:23;101580.50;;;4.64;100.00
13015;BME280;6573;57.696;11.950;2022-12-18T10:48:30;101620.47;;;4.90;100.00
13015;BME280;6573;57.696;11.950;2022-12-18T10:51:48;101548.13;;;4.31;100.00
13015;BME280;6573;57.696;11.950;2022-12-18T10:54:55;101550.31;;;4.44;100.00
13015;BME280;6573;57.696;11.950;2022-12-18T10:58:19;101559.19;;;4.49;100.00
13015;BME280;6573;57.696;11.950;2022-12-18T11:01:13;101625.09;;;4.98;100.00
13015;BME280;6573;57.696;11.950;2022-12-18T11:04:30;101593.50;;;4.89;100.00
13015;BME280;6573;57.696;11.950;2022-12-18T11:14:00;101616.81;;;5.11;100.00
13015;BME280;6573;57.696;11.950;2022-12-18T11:16:32;101615.34;;;5.19;100.00
13015;BME280;6573;57.696;11.950;2022-12-18T11:19:19;101609.94;;;5.13;100.00
13015;BME280;6573;57.696;11.950;2022-12-18T11:21:49;101624.00;;;5.18;100.00
13015;BME280;6573;57.696;11.950;2022-12-18T11:24:21;101629.97;;;5.14;100.00
13015;BME280;6573;57.696;11.950;2022-12-18T11:26:52;101633.44;;;5.13;100.00
13015;BME280;6573;57.696;11.950;2022-12-18T11:29:32;101628.94;;;5.09;100.00
13015;BME280;6573;57.696;11.950;2022-12-18T11:32:23;101635.81;;;5.07;100.00
13015;BME280;6573;57.696;11.950;2022-12-18T11:34:57;101648.03;;;5.08;100.00
13015;BME280;6573;57.696;11.950;2022-12-18T11:37:26;101637.78;;;5.14;100.00
13015;BME280;6573;57.696;11.950;2022-12-18T11:39:59;101624.63;;;5.11;100.00
13015;BME280;6573;57.696;11.950;2022-12-18T11:42:35;101643.09;;;5.17;100.00
13015;BME280;6573;57.696;11.950;2022-12-18T11:45:24;101646.63;;;5.19;100.00
13015;BME280;6573;57.696;11.950;2022-12-18T11:47:58;101636.09;;;5.16;100.00
13015;BME280;6573;57.696;11.950;2022-12-18T11:50:37;101641.41;;;5.19;100.00
13015;BME280;6573;57.696;11.950;2022-12-18T11:53:11;101643.22;;;5.20;100.00
13015;BME280;6573;57.696;11.950;2022-12-18T11:55:49;101642.34;;;5.21;100.00
13015;BME280;6573;57.696;11.950;2022-12-18T11:58:37;101644.25;;;5.26;100.00
13015;BME280;6573;57.696;11.950;2022-12-18T12:01:20;101639.75;;;5.21;100.00
13015;BME280;6573;57.696;11.950;2022-12-18T12:04:05;101643.09;;;5.17;100.00
13015;BME280;6573;57.696;11.950;2022-12-18T12:06:40;101649.28;;;5.21;100.00
13015;BME280;6573;57.696;11.950;2022-12-18T12:09:18;101669.38;;;5.23;100.00
13015;BME280;6573;57.696;11.950;2022-12-18T12:12:02;101664.06;;;5.20;100.00
13015;BME280;6573;57.696;11.950;2022-12-18T12:14:44;101668.31;;;5.18;100.00
13015;BME280;6573;57.696;11.950;2022-12-18T12:17:25;101674.59;;;5.23;100.00
13015;BME280;6573;57.696;11.950;2022-12-18T12:20:04;101674.41;;;5.17;100.00
13015;BME280;6573;57.696;11.950;2022-12-18T12:22:44;101676.16;;;5.18;100.00
13015;BME280;6573;57.696;11.950;2022-12-18T12:25:21;101692.81;;;5.22;100.00
13015;BME280;6573;57.696;11.950;2022-12-18T12:28:06;101692.00;;;5.24;100.00
13015;BME280;6573;57.696;11.950;2022-12-18T12:30:50;101679.97;;;5.28;100.00
13015;BME280;6573;57.696;11.950;2022-12-18T12:33:33;101695.56;;;5.27;100.00
13015;BME280;6573;57.696;11.950;2022-12-18T12:36:12;101697.34;;;5.28;100.00
13015;BME280;6573;57.696;11.950;2022-12-18T12:38:45;101684.19;;;5.24;100.00
13015;BME280;6573;57.696;11.950;2022-12-18T12:41:19;101680.00;;;5.30;100.00
13015;BME280;6573;57.696;11.950;2022-12-18T12:44:07;101683.44;;;5.29;100.00
13015;BME280;6573;57.696;11.950;2022-12-18T12:46:39;101664.16;;;5.23;100.00
13015;BME280;6573;57.696;11.950;2022-12-18T12:49:13;101686.16;;;5.32;100.00
13015;BME280;6573;57.696;11.950;2022-12-18T12:51:44;101675.06;;;5.39;100.00
13015;BME280;6573;57.696;11.950;2022-12-18T12:54:17;101682.97;;;5.40;100.00
13015;BME280;6573;57.696;11.950;2022-12-18T12:56:52;101685.34;;;5.33;100.00
13015;BME280;6573;57.696;11.950;2022-12-18T12:59:30;101673.09;;;5.32;100.00
13015;BME280;6573;57.696;11.950;2022-12-18T13:02:11;101688.13;;;5.39;100.00
13015;BME280;6573;57.696;11.950;2022-12-18T13:04:49;101687.19;;;5.37;100.00
13015;BME280;6573;57.696;11.950;2022-12-18T13:07:24;101700.34;;;5.40;100.00
13015;BME280;6573;57.696;11.950;2022-12-18T13:10:14;101697.63;;;5.37;100.00
13015;BME280;6573;57.696;11.950;2022-12-18T13:12:55;101707.88;;;5.31;100.00
13015;BME280;6573;57.696;11.950;2022-12-18T13:15:27;101693.97;;;5.32;100.00
13015;BME280;6573;57.696;11.950;2022-12-18T13:18:14;101690.44;;;5.30;100.00
13015;BME280;6573;57.696;11.950;2022-12-18T13:20:46;101694.19;;;5.38;100.00
13015;BME280;6573;57.696;11.950;2022-12-18T13:23:33;101695.94;;;5.39;100.00
13015;BME280;6573;57.696;11.950;2022-12-18T13:26:29;101693.97;;;5.32;100.00
13015;BME280;6573;57.696;11.950;2022-12-18T13:29:00;101706.31;;;5.36;100.00
13015;BME280;6573;57.696;11.950;2022-12-18T13:34:32;101718.09;;;5.24;100.00
13015;BME280;6573;57.696;11.950;2022-12-18T13:37:43;101724.69;;;5.13;100.00
13015;BME280;6573;57.696;11.950;2022-12-18T13:43:36;101704.81;;;5.17;100.00
13015;BME280;6573;57.696;11.950;2022-12-18T13:46:21;101715.38;;;5.21;100.00
13015;BME280;6573;57.696;11.950;2022-12-18T13:48:56;101716.25;;;5.20;100.00
13015;BME280;6573;57.696;11.950;2022-12-18T13:51:25;101727.75;;;5.27;100.00
13015;BME280;6573;57.696;11.950;2022-12-18T13:53:58;101728.31;;;5.18;100.00